sensor_id;sensor_type;location;lat;lon;timestamp;P1;durP1;ratioP1;P2;durP2;ratioP2
57225;SDS011;43082;43.568;22.256;2022-09-12T00:00:38;6.35;;;1.30;;
57225;SDS011;43082;43.568;22.256;2022-09-12T00:03:04;4.80;;;1.20;;
57225;SDS011;43082;43.568;22.256;2022-09-12T00:05:29;5.10;;;1.10;;
57225;SDS011;43082;43.568;22.256;2022-09-12T00:07:56;4.60;;;1.30;;
57225;SDS011;43082;43.568;22.256;2022-09-12T00:10:22;4.85;;;1.40;;
57225;SDS011;43082;43.568;22.256;2022-09-12T00:12:47;5.45;;;1.52;;
57225;SDS011;43082;43.568;22.256;2022-09-12T00:15:13;4.93;;;1.15;;
57225;SDS011;43082;43.568;22.256;2022-09-12T00:17:38;5.88;;;1.30;;
57225;SDS011;43082;43.568;22.256;2022-09-12T00:20:04;6.35;;;1.25;;
57225;SDS011;43082;43.568;22.256;2022-09-12T00:22:31;6.32;;;1.50;;
57225;SDS011;43082;43.568;22.256;2022-09-12T00:24:57;7.47;;;1.45;;
57225;SDS011;43082;43.568;22.256;2022-09-12T00:27:23;5.80;;;1.65;;
57225;SDS011;43082;43.568;22.256;2022-09-12T00:29:48;5.78;;;1.27;;
57225;SDS011;43082;43.568;22.256;2022-09-12T00:32:13;4.07;;;1.20;;
57225;SDS011;43082;43.568;22.256;2022-09-12T00:34:39;10.75;;;1.40;;
57225;SDS011;43082;43.568;22.256;2022-09-12T00:37:04;7.68;;;1.50;;
57225;SDS011;43082;43.568;22.256;2022-09-12T00:39:30;3.65;;;1.20;;
57225;SDS011;43082;43.568;22.256;2022-09-12T00:41:55;5.65;;;1.30;;
57225;SDS011;43082;43.568;22.256;2022-09-12T00:46:51;4.97;;;1.05;;
57225;SDS011;43082;43.568;22.256;2022-09-12T00:52:04;4.85;;;1.30;;
57225;SDS011;43082;43.568;22.256;2022-09-12T00:54:33;7.70;;;1.60;;
57225;SDS011;43082;43.568;22.256;2022-09-12T00:57:03;3.30;;;1.00;;
57225;SDS011;43082;43.568;22.256;2022-09-12T00:59:31;5.35;;;1.40;;
57225;SDS011;43082;43.568;22.256;2022-09-12T01:02:02;2.40;;;1.20;;
57225;SDS011;43082;43.568;22.256;2022-09-12T01:04:28;6.97;;;1.40;;
57225;SDS011;43082;43.568;22.256;2022-09-12T01:06:55;5.13;;;1.52;;
57225;SDS011;43082;43.568;22.256;2022-09-12T01:09:21;5.00;;;1.50;;
57225;SDS011;43082;43.568;22.256;2022-09-12T01:11:47;7.60;;;1.40;;
57225;SDS011;43082;43.568;22.256;2022-09-12T01:14:15;6.03;;;1.45;;
57225;SDS011;43082;43.568;22.256;2022-09-12T01:16:41;5.88;;;1.30;;
57225;SDS011;43082;43.568;22.256;2022-09-12T01:19:14;4.45;;;1.63;;
57225;SDS011;43082;43.568;22.256;2022-09-12T01:27:43;4.70;;;1.40;;
57225;SDS011;43082;43.568;22.256;2022-09-12T01:30:22;5.78;;;1.80;;
57225;SDS011;43082;43.568;22.256;2022-09-12T01:33:05;7.13;;;1.40;;
57225;SDS011;43082;43.568;22.256;2022-09-12T01:38:37;3.03;;;1.40;;
57225;SDS011;43082;43.568;22.256;2022-09-12T01:43:51;3.72;;;1.50;;
57225;SDS011;43082;43.568;22.256;2022-09-12T01:49:28;10.48;;;1.88;;
57225;SDS011;43082;43.568;22.256;2022-09-12T01:52:21;5.85;;;1.80;;
57225;SDS011;43082;43.568;22.256;2022-09-12T01:54:50;3.92;;;1.50;;
57225;SDS011;43082;43.568;22.256;2022-09-12T01:57:21;4.28;;;1.70;;
57225;SDS011;43082;43.568;22.256;2022-09-12T01:59:53;6.03;;;1.77;;
57225;SDS011;43082;43.568;22.256;2022-09-12T02:02:21;6.22;;;2.00;;
57225;SDS011;43082;43.568;22.256;2022-09-12T02:04:58;4.00;;;1.67;;
57225;SDS011;43082;43.568;22.256;2022-09-12T02:07:34;6.45;;;2.17;;
57225;SDS011;43082;43.568;22.256;2022-09-12T02:10:07;5.13;;;1.77;;
57225;SDS011;43082;43.568;22.256;2022-09-12T02:12:42;4.72;;;1.73;;
57225;SDS011;43082;43.568;22.256;2022-09-12T02:15:11;6.03;;;2.20;;
57225;SDS011;43082;43.568;22.256;2022-09-12T02:17:41;4.43;;;1.80;;
57225;SDS011;43082;43.568;22.256;2022-09-12T02:20:09;6.13;;;1.90;;
57225;SDS011;43082;43.568;22.256;2022-09-12T02:22:40;4.50;;;1.70;;
57225;SDS011;43082;43.568;22.256;2022-09-12T02:25:06;6.00;;;1.90;;
57225;SDS011;43082;43.568;22.256;2022-09-12T02:27:42;5.38;;;1.80;;
57225;SDS011;43082;43.568;22.256;2022-09-12T02:30:10;7.60;;;2.08;;
57225;SDS011;43082;43.568;22.256;2022-09-12T02:38:34;7.03;;;2.13;;
57225;SDS011;43082;43.568;22.256;2022-09-12T02:41:04;6.55;;;2.40;;
57225;SDS011;43082;43.568;22.256;2022-09-12T02:43:30;5.82;;;2.08;;
57225;SDS011;43082;43.568;22.256;2022-09-12T02:45:55;5.70;;;2.45;;
57225;SDS011;43082;43.568;22.256;2022-09-12T02:48:25;7.55;;;2.80;;
57225;SDS011;43082;43.568;22.256;2022-09-12T02:50:52;6.95;;;2.10;;
57225;SDS011;43082;43.568;22.256;2022-09-12T02:53:18;5.88;;;3.00;;
57225;SDS011;43082;43.568;22.256;2022-09-12T02:55:43;4.93;;;2.28;;
57225;SDS011;43082;43.568;22.256;2022-09-12T02:58:10;5.40;;;2.40;;
57225;SDS011;43082;43.568;22.256;2022-09-12T03:00:43;5.60;;;2.38;;
57225;SDS011;43082;43.568;22.256;2022-09-12T03:06:15;5.03;;;2.50;;
57225;SDS011;43082;43.568;22.256;2022-09-12T03:09:06;7.93;;;3.10;;
57225;SDS011;43082;43.568;22.256;2022-09-12T03:14:16;6.82;;;2.63;;
57225;SDS011;43082;43.568;22.256;2022-09-12T03:22:30;5.15;;;2.13;;
57225;SDS011;43082;43.568;22.256;2022-09-12T03:28:10;8.93;;;2.22;;
57225;SDS011;43082;43.568;22.256;2022-09-12T03:30:39;5.65;;;1.80;;
57225;SDS011;43082;43.568;22.256;2022-09-12T03:33:09;6.10;;;1.98;;
57225;SDS011;43082;43.568;22.256;2022-09-12T03:35:35;9.57;;;2.55;;
57225;SDS011;43082;43.568;22.256;2022-09-12T03:38:00;5.82;;;1.95;;
57225;SDS011;43082;43.568;22.256;2022-09-12T03:40:26;7.45;;;2.00;;
57225;SDS011;43082;43.568;22.256;2022-09-12T03:42:51;6.57;;;2.72;;
57225;SDS011;43082;43.568;22.256;2022-09-12T03:45:17;6.65;;;2.50;;
57225;SDS011;43082;43.568;22.256;2022-09-12T03:47:43;7.78;;;2.30;;
57225;SDS011;43082;43.568;22.256;2022-09-12T03:50:08;7.22;;;2.60;;
57225;SDS011;43082;43.568;22.256;2022-09-12T03:52:34;6.20;;;3.00;;
57225;SDS011;43082;43.568;22.256;2022-09-12T03:54:59;7.10;;;2.60;;
57225;SDS011;43082;43.568;22.256;2022-09-12T03:57:25;6.55;;;3.17;;
57225;SDS011;43082;43.568;22.256;2022-09-12T03:59:50;7.70;;;3.05;;
57225;SDS011;43082;43.568;22.256;2022-09-12T04:02:16;7.85;;;2.90;;
57225;SDS011;43082;43.568;22.256;2022-09-12T04:04:41;6.45;;;3.10;;
57225;SDS011;43082;43.568;22.256;2022-09-12T04:07:08;5.38;;;2.88;;
57225;SDS011;43082;43.568;22.256;2022-09-12T04:09:34;7.80;;;2.67;;
57225;SDS011;43082;43.568;22.256;2022-09-12T04:11:59;7.35;;;2.80;;
57225;SDS011;43082;43.568;22.256;2022-09-12T04:14:24;10.80;;;3.00;;
57225;SDS011;43082;43.568;22.256;2022-09-12T04:16:50;6.65;;;3.10;;
57225;SDS011;43082;43.568;22.256;2022-09-12T04:19:15;6.25;;;2.50;;
57225;SDS011;43082;43.568;22.256;2022-09-12T04:21:41;6.53;;;2.50;;
57225;SDS011;43082;43.568;22.256;2022-09-12T04:24:06;5.38;;;2.55;;
57225;SDS011;43082;43.568;22.256;2022-09-12T04:26:32;9.10;;;2.70;;
57225;SDS011;43082;43.568;22.256;2022-09-12T04:28:57;4.85;;;2.40;;
57225;SDS011;43082;43.568;22.256;2022-09-12T04:31:23;6.70;;;2.65;;
57225;SDS011;43082;43.568;22.256;2022-09-12T04:33:56;5.70;;;2.30;;
57225;SDS011;43082;43.568;22.256;2022-09-12T04:36:23;6.07;;;2.80;;
57225;SDS011;43082;43.568;22.256;2022-09-12T04:38:49;8.35;;;2.60;;
57225;SDS011;43082;43.568;22.256;2022-09-12T04:41:16;8.35;;;2.92;;
57225;SDS011;43082;43.568;22.256;2022-09-12T04:43:46;5.78;;;2.92;;
57225;SDS011;43082;43.568;22.256;2022-09-12T04:46:15;6.28;;;3.10;;
57225;SDS011;43082;43.568;22.256;2022-09-12T04:48:43;6.43;;;3.10;;
57225;SDS011;43082;43.568;22.256;2022-09-12T04:51:10;7.20;;;3.30;;
57225;SDS011;43082;43.568;22.256;2022-09-12T04:53:40;7.57;;;3.45;;
57225;SDS011;43082;43.568;22.256;2022-09-12T04:56:07;7.93;;;3.20;;
57225;SDS011;43082;43.568;22.256;2022-09-12T04:58:33;9.00;;;3.80;;
57225;SDS011;43082;43.568;22.256;2022-09-12T05:01:03;7.80;;;3.83;;
57225;SDS011;43082;43.568;22.256;2022-09-12T05:03:32;13.15;;;7.53;;
57225;SDS011;43082;43.568;22.256;2022-09-12T05:05:58;16.17;;;7.05;;
57225;SDS011;43082;43.568;22.256;2022-09-12T05:08:24;8.90;;;4.70;;
57225;SDS011;43082;43.568;22.256;2022-09-12T05:10:49;8.43;;;3.53;;
57225;SDS011;43082;43.568;22.256;2022-09-12T05:13:15;6.20;;;3.40;;
57225;SDS011;43082;43.568;22.256;2022-09-12T05:15:40;10.18;;;3.70;;
57225;SDS011;43082;43.568;22.256;2022-09-12T05:18:06;10.95;;;3.90;;
57225;SDS011;43082;43.568;22.256;2022-09-12T05:20:34;14.43;;;3.83;;
57225;SDS011;43082;43.568;22.256;2022-09-12T05:22:59;11.88;;;3.65;;
57225;SDS011;43082;43.568;22.256;2022-09-12T05:25:25;7.63;;;3.72;;
57225;SDS011;43082;43.568;22.256;2022-09-12T05:27:51;9.27;;;4.68;;
57225;SDS011;43082;43.568;22.256;2022-09-12T05:30:17;9.07;;;5.40;;
57225;SDS011;43082;43.568;22.256;2022-09-12T05:32:42;11.07;;;7.18;;
57225;SDS011;43082;43.568;22.256;2022-09-12T05:35:08;12.55;;;7.35;;
57225;SDS011;43082;43.568;22.256;2022-09-12T05:37:33;19.63;;;9.68;;
57225;SDS011;43082;43.568;22.256;2022-09-12T05:39:59;15.45;;;8.32;;
57225;SDS011;43082;43.568;22.256;2022-09-12T05:42:25;12.30;;;6.55;;
57225;SDS011;43082;43.568;22.256;2022-09-12T05:44:50;8.32;;;3.70;;
57225;SDS011;43082;43.568;22.256;2022-09-12T05:47:16;11.60;;;5.28;;
57225;SDS011;43082;43.568;22.256;2022-09-12T05:49:41;10.82;;;5.20;;
57225;SDS011;43082;43.568;22.256;2022-09-12T05:52:09;6.97;;;3.65;;
57225;SDS011;43082;43.568;22.256;2022-09-12T05:54:34;9.35;;;4.93;;
57225;SDS011;43082;43.568;22.256;2022-09-12T05:57:00;8.70;;;4.07;;
57225;SDS011;43082;43.568;22.256;2022-09-12T05:59:25;8.23;;;3.33;;
57225;SDS011;43082;43.568;22.256;2022-09-12T06:01:52;17.10;;;8.23;;
57225;SDS011;43082;43.568;22.256;2022-09-12T06:04:18;18.55;;;12.50;;
57225;SDS011;43082;43.568;22.256;2022-09-12T06:06:44;12.82;;;7.15;;
57225;SDS011;43082;43.568;22.256;2022-09-12T06:09:10;10.38;;;4.78;;
57225;SDS011;43082;43.568;22.256;2022-09-12T06:11:37;7.88;;;4.60;;
57225;SDS011;43082;43.568;22.256;2022-09-12T06:14:05;15.77;;;9.50;;
57225;SDS011;43082;43.568;22.256;2022-09-12T06:16:31;12.93;;;6.50;;
57225;SDS011;43082;43.568;22.256;2022-09-12T06:19:02;11.32;;;5.93;;
57225;SDS011;43082;43.568;22.256;2022-09-12T06:21:29;11.45;;;7.00;;
57225;SDS011;43082;43.568;22.256;2022-09-12T06:23:55;15.13;;;8.20;;
57225;SDS011;43082;43.568;22.256;2022-09-12T06:26:23;9.02;;;4.88;;
57225;SDS011;43082;43.568;22.256;2022-09-12T06:28:50;9.18;;;5.18;;
57225;SDS011;43082;43.568;22.256;2022-09-12T06:31:20;9.88;;;4.78;;
57225;SDS011;43082;43.568;22.256;2022-09-12T06:33:48;7.93;;;4.60;;
57225;SDS011;43082;43.568;22.256;2022-09-12T06:36:15;15.77;;;6.30;;
57225;SDS011;43082;43.568;22.256;2022-09-12T06:38:42;11.85;;;6.97;;
57225;SDS011;43082;43.568;22.256;2022-09-12T06:41:09;20.02;;;11.60;;
57225;SDS011;43082;43.568;22.256;2022-09-12T06:43:36;15.05;;;9.20;;
57225;SDS011;43082;43.568;22.256;2022-09-12T06:46:02;10.85;;;6.55;;
57225;SDS011;43082;43.568;22.256;2022-09-12T06:48:28;10.65;;;6.57;;
57225;SDS011;43082;43.568;22.256;2022-09-12T06:50:54;12.27;;;6.80;;
57225;SDS011;43082;43.568;22.256;2022-09-12T06:53:21;12.40;;;6.38;;
57225;SDS011;43082;43.568;22.256;2022-09-12T06:55:53;9.82;;;6.28;;
57225;SDS011;43082;43.568;22.256;2022-09-12T06:58:19;9.30;;;5.95;;
57225;SDS011;43082;43.568;22.256;2022-09-12T07:00:45;14.38;;;7.68;;
57225;SDS011;43082;43.568;22.256;2022-09-12T07:03:10;13.20;;;9.07;;
57225;SDS011;43082;43.568;22.256;2022-09-12T07:05:36;12.75;;;7.10;;
57225;SDS011;43082;43.568;22.256;2022-09-12T07:08:01;12.85;;;6.65;;
57225;SDS011;43082;43.568;22.256;2022-09-12T07:10:27;10.20;;;6.78;;
57225;SDS011;43082;43.568;22.256;2022-09-12T07:12:54;11.95;;;6.88;;
57225;SDS011;43082;43.568;22.256;2022-09-12T07:15:20;12.32;;;6.60;;
57225;SDS011;43082;43.568;22.256;2022-09-12T07:17:45;10.23;;;6.80;;
57225;SDS011;43082;43.568;22.256;2022-09-12T07:20:11;9.48;;;6.55;;
57225;SDS011;43082;43.568;22.256;2022-09-12T07:22:36;8.95;;;6.72;;
57225;SDS011;43082;43.568;22.256;2022-09-12T07:25:02;9.60;;;6.43;;
57225;SDS011;43082;43.568;22.256;2022-09-12T07:27:29;8.95;;;6.85;;
57225;SDS011;43082;43.568;22.256;2022-09-12T07:29:54;8.48;;;6.25;;
57225;SDS011;43082;43.568;22.256;2022-09-12T07:32:20;8.30;;;5.70;;
57225;SDS011;43082;43.568;22.256;2022-09-12T07:34:47;8.32;;;6.10;;
57225;SDS011;43082;43.568;22.256;2022-09-12T07:37:14;9.30;;;6.25;;
57225;SDS011;43082;43.568;22.256;2022-09-12T07:39:39;8.25;;;5.30;;
57225;SDS011;43082;43.568;22.256;2022-09-12T07:42:05;8.02;;;4.97;;
57225;SDS011;43082;43.568;22.256;2022-09-12T07:44:31;9.05;;;5.05;;
57225;SDS011;43082;43.568;22.256;2022-09-12T07:46:56;9.43;;;5.60;;
57225;SDS011;43082;43.568;22.256;2022-09-12T07:49:22;12.10;;;6.50;;
57225;SDS011;43082;43.568;22.256;2022-09-12T07:51:48;8.95;;;5.50;;
57225;SDS011;43082;43.568;22.256;2022-09-12T07:54:13;9.35;;;5.47;;
57225;SDS011;43082;43.568;22.256;2022-09-12T07:56:40;8.75;;;5.53;;
57225;SDS011;43082;43.568;22.256;2022-09-12T07:59:06;8.65;;;5.82;;
57225;SDS011;43082;43.568;22.256;2022-09-12T08:01:34;7.10;;;4.55;;
57225;SDS011;43082;43.568;22.256;2022-09-12T08:04:00;6.25;;;4.20;;
57225;SDS011;43082;43.568;22.256;2022-09-12T08:06:26;15.90;;;11.50;;
57225;SDS011;43082;43.568;22.256;2022-09-12T08:08:55;10.35;;;6.95;;
57225;SDS011;43082;43.568;22.256;2022-09-12T08:11:22;8.20;;;4.50;;
57225;SDS011;43082;43.568;22.256;2022-09-12T08:13:48;7.22;;;4.65;;
57225;SDS011;43082;43.568;22.256;2022-09-12T08:16:19;6.25;;;3.70;;
57225;SDS011;43082;43.568;22.256;2022-09-12T08:18:46;7.93;;;4.32;;
57225;SDS011;43082;43.568;22.256;2022-09-12T08:21:19;7.65;;;4.28;;
57225;SDS011;43082;43.568;22.256;2022-09-12T08:23:52;7.90;;;5.03;;
57225;SDS011;43082;43.568;22.256;2022-09-12T08:26:22;7.68;;;4.40;;
57225;SDS011;43082;43.568;22.256;2022-09-12T08:28:48;11.98;;;4.43;;
57225;SDS011;43082;43.568;22.256;2022-09-12T08:31:16;13.70;;;3.90;;
57225;SDS011;43082;43.568;22.256;2022-09-12T08:33:42;5.50;;;2.80;;
57225;SDS011;43082;43.568;22.256;2022-09-12T08:38:38;8.00;;;3.58;;
57225;SDS011;43082;43.568;22.256;2022-09-12T08:49:12;8.23;;;3.10;;
57225;SDS011;43082;43.568;22.256;2022-09-12T08:51:44;10.85;;;2.67;;
57225;SDS011;43082;43.568;22.256;2022-09-12T08:54:28;5.63;;;2.70;;
57225;SDS011;43082;43.568;22.256;2022-09-12T08:56:58;5.65;;;2.28;;
57225;SDS011;43082;43.568;22.256;2022-09-12T08:59:29;6.03;;;3.33;;
57225;SDS011;43082;43.568;22.256;2022-09-12T09:15:29;7.05;;;4.70;;
57225;SDS011;43082;43.568;22.256;2022-09-12T09:21:02;5.38;;;2.40;;
57225;SDS011;43082;43.568;22.256;2022-09-12T09:23:40;6.13;;;2.75;;
57225;SDS011;43082;43.568;22.256;2022-09-12T09:31:19;4.15;;;1.90;;
57225;SDS011;43082;43.568;22.256;2022-09-12T09:33:46;5.22;;;1.95;;
57225;SDS011;43082;43.568;22.256;2022-09-12T09:36:22;6.50;;;2.08;;
57225;SDS011;43082;43.568;22.256;2022-09-12T09:44:33;5.13;;;2.40;;
57225;SDS011;43082;43.568;22.256;2022-09-12T09:46:59;4.13;;;1.85;;
57225;SDS011;43082;43.568;22.256;2022-09-12T09:49:29;5.43;;;2.20;;
57225;SDS011;43082;43.568;22.256;2022-09-12T09:51:57;7.07;;;2.33;;
57225;SDS011;43082;43.568;22.256;2022-09-12T09:54:25;7.35;;;2.42;;
57225;SDS011;43082;43.568;22.256;2022-09-12T09:56:54;7.47;;;2.47;;
57225;SDS011;43082;43.568;22.256;2022-09-12T09:59:27;4.80;;;2.30;;
57225;SDS011;43082;43.568;22.256;2022-09-12T10:04:26;6.97;;;2.67;;
57225;SDS011;43082;43.568;22.256;2022-09-12T10:07:03;6.15;;;2.75;;
57225;SDS011;43082;43.568;22.256;2022-09-12T10:09:33;5.63;;;3.00;;
57225;SDS011;43082;43.568;22.256;2022-09-12T10:12:45;22.02;;;13.82;;
57225;SDS011;43082;43.568;22.256;2022-09-12T10:14:58;4.47;;;2.50;;
57225;SDS011;43082;43.568;22.256;2022-09-12T10:17:40;5.47;;;3.00;;
57225;SDS011;43082;43.568;22.256;2022-09-12T10:22:55;8.30;;;2.75;;
57225;SDS011;43082;43.568;22.256;2022-09-12T10:25:21;6.80;;;2.83;;
57225;SDS011;43082;43.568;22.256;2022-09-12T10:27:52;5.15;;;2.60;;
57225;SDS011;43082;43.568;22.256;2022-09-12T10:30:19;5.82;;;3.00;;
57225;SDS011;43082;43.568;22.256;2022-09-12T10:32:48;6.25;;;2.92;;
57225;SDS011;43082;43.568;22.256;2022-09-12T10:35:22;5.10;;;2.70;;
57225;SDS011;43082;43.568;22.256;2022-09-12T10:38:00;5.88;;;3.30;;
57225;SDS011;43082;43.568;22.256;2022-09-12T10:40:28;7.35;;;3.30;;
57225;SDS011;43082;43.568;22.256;2022-09-12T10:42:59;5.45;;;2.60;;
57225;SDS011;43082;43.568;22.256;2022-09-12T10:48:47;5.55;;;2.80;;
57225;SDS011;43082;43.568;22.256;2022-09-12T10:50:54;5.30;;;2.80;;
57225;SDS011;43082;43.568;22.256;2022-09-12T10:53:22;5.63;;;2.53;;
57225;SDS011;43082;43.568;22.256;2022-09-12T10:56:21;5.93;;;2.65;;
57225;SDS011;43082;43.568;22.256;2022-09-12T11:09:52;6.00;;;3.08;;
57225;SDS011;43082;43.568;22.256;2022-09-12T11:28:55;5.30;;;2.60;;
57225;SDS011;43082;43.568;22.256;2022-09-12T11:37:23;7.43;;;3.10;;
57225;SDS011;43082;43.568;22.256;2022-09-12T11:39:54;7.22;;;2.63;;
57225;SDS011;43082;43.568;22.256;2022-09-12T11:42:22;5.85;;;2.40;;
57225;SDS011;43082;43.568;22.256;2022-09-12T11:45:02;5.03;;;2.30;;
57225;SDS011;43082;43.568;22.256;2022-09-12T11:47:31;8.02;;;3.10;;
57225;SDS011;43082;43.568;22.256;2022-09-12T11:49:58;5.90;;;3.10;;
57225;SDS011;43082;43.568;22.256;2022-09-12T11:52:28;8.57;;;2.88;;
57225;SDS011;43082;43.568;22.256;2022-09-12T11:55:01;5.85;;;2.70;;
57225;SDS011;43082;43.568;22.256;2022-09-12T11:57:38;5.47;;;2.38;;
57225;SDS011;43082;43.568;22.256;2022-09-12T12:00:21;4.85;;;2.45;;
57225;SDS011;43082;43.568;22.256;2022-09-12T12:05:51;5.30;;;2.72;;
57225;SDS011;43082;43.568;22.256;2022-09-12T12:08:41;6.40;;;2.58;;
57225;SDS011;43082;43.568;22.256;2022-09-12T12:11:08;5.18;;;2.30;;
57225;SDS011;43082;43.568;22.256;2022-09-12T12:13:45;6.78;;;2.38;;
57225;SDS011;43082;43.568;22.256;2022-09-12T12:16:21;7.28;;;2.50;;
57225;SDS011;43082;43.568;22.256;2022-09-12T12:18:54;5.97;;;2.50;;
57225;SDS011;43082;43.568;22.256;2022-09-12T12:29:12;5.65;;;2.40;;
57225;SDS011;43082;43.568;22.256;2022-09-12T12:34:37;4.70;;;2.33;;
57225;SDS011;43082;43.568;22.256;2022-09-12T12:39:55;6.35;;;2.70;;
57225;SDS011;43082;43.568;22.256;2022-09-12T12:44:56;6.82;;;2.50;;
57225;SDS011;43082;43.568;22.256;2022-09-12T12:47:22;6.00;;;2.00;;
57225;SDS011;43082;43.568;22.256;2022-09-12T12:49:55;8.75;;;2.20;;
57225;SDS011;43082;43.568;22.256;2022-09-12T12:52:23;5.10;;;1.83;;
57225;SDS011;43082;43.568;22.256;2022-09-12T12:54:55;4.18;;;2.15;;
57225;SDS011;43082;43.568;22.256;2022-09-12T12:57:27;5.03;;;2.40;;
57225;SDS011;43082;43.568;22.256;2022-09-12T13:00:33;4.57;;;2.00;;
57225;SDS011;43082;43.568;22.256;2022-09-12T13:05:48;6.32;;;3.33;;
57225;SDS011;43082;43.568;22.256;2022-09-12T13:10:51;6.72;;;2.15;;
57225;SDS011;43082;43.568;22.256;2022-09-12T13:13:23;4.80;;;1.73;;
57225;SDS011;43082;43.568;22.256;2022-09-12T13:15:56;5.80;;;1.60;;
57225;SDS011;43082;43.568;22.256;2022-09-12T13:18:26;3.78;;;1.80;;
57225;SDS011;43082;43.568;22.256;2022-09-12T13:23:39;3.80;;;1.63;;
57225;SDS011;43082;43.568;22.256;2022-09-12T13:26:10;6.70;;;2.65;;
57225;SDS011;43082;43.568;22.256;2022-09-12T13:28:45;5.30;;;1.55;;
57225;SDS011;43082;43.568;22.256;2022-09-12T13:33:52;5.13;;;1.70;;
57225;SDS011;43082;43.568;22.256;2022-09-12T13:39:19;2.90;;;1.30;;
57225;SDS011;43082;43.568;22.256;2022-09-12T13:47:12;5.20;;;2.35;;
57225;SDS011;43082;43.568;22.256;2022-09-12T13:49:40;5.05;;;1.70;;
57225;SDS011;43082;43.568;22.256;2022-09-12T13:52:07;7.38;;;3.22;;
57225;SDS011;43082;43.568;22.256;2022-09-12T13:54:38;6.03;;;2.30;;
57225;SDS011;43082;43.568;22.256;2022-09-12T13:57:04;4.82;;;1.75;;
57225;SDS011;43082;43.568;22.256;2022-09-12T13:59:36;4.93;;;1.40;;
57225;SDS011;43082;43.568;22.256;2022-09-12T14:02:15;4.88;;;1.48;;
57225;SDS011;43082;43.568;22.256;2022-09-12T14:04:48;3.30;;;1.30;;
57225;SDS011;43082;43.568;22.256;2022-09-12T14:07:33;3.67;;;1.52;;
57225;SDS011;43082;43.568;22.256;2022-09-12T14:12:56;5.45;;;1.35;;
57225;SDS011;43082;43.568;22.256;2022-09-12T14:15:24;3.67;;;1.48;;
57225;SDS011;43082;43.568;22.256;2022-09-12T14:17:52;4.65;;;1.90;;
57225;SDS011;43082;43.568;22.256;2022-09-12T14:20:25;4.95;;;1.60;;
57225;SDS011;43082;43.568;22.256;2022-09-12T14:22:52;5.25;;;2.08;;
57225;SDS011;43082;43.568;22.256;2022-09-12T14:25:21;5.93;;;2.30;;
57225;SDS011;43082;43.568;22.256;2022-09-12T14:27:52;3.90;;;1.60;;
57225;SDS011;43082;43.568;22.256;2022-09-12T14:33:14;6.45;;;1.60;;
57225;SDS011;43082;43.568;22.256;2022-09-12T14:35:42;4.18;;;1.70;;
57225;SDS011;43082;43.568;22.256;2022-09-12T14:40:41;5.03;;;2.22;;
57225;SDS011;43082;43.568;22.256;2022-09-12T14:43:24;7.72;;;3.20;;
57225;SDS011;43082;43.568;22.256;2022-09-12T14:45:55;7.22;;;3.00;;
57225;SDS011;43082;43.568;22.256;2022-09-12T14:48:23;5.32;;;2.30;;
57225;SDS011;43082;43.568;22.256;2022-09-12T14:50:50;5.80;;;2.70;;
57225;SDS011;43082;43.568;22.256;2022-09-12T14:55:43;6.53;;;2.20;;
57225;SDS011;43082;43.568;22.256;2022-09-12T14:58:27;5.97;;;1.85;;
57225;SDS011;43082;43.568;22.256;2022-09-12T15:01:00;4.28;;;1.90;;
57225;SDS011;43082;43.568;22.256;2022-09-12T15:03:29;5.10;;;2.33;;
57225;SDS011;43082;43.568;22.256;2022-09-12T15:08:54;6.60;;;2.28;;
57225;SDS011;43082;43.568;22.256;2022-09-12T15:11:21;6.85;;;2.10;;
57225;SDS011;43082;43.568;22.256;2022-09-12T15:13:46;4.90;;;2.30;;
57225;SDS011;43082;43.568;22.256;2022-09-12T15:16:12;7.45;;;1.77;;
57225;SDS011;43082;43.568;22.256;2022-09-12T15:18:37;8.52;;;1.65;;
57225;SDS011;43082;43.568;22.256;2022-09-12T15:21:04;3.22;;;1.42;;
57225;SDS011;43082;43.568;22.256;2022-09-12T15:23:33;3.95;;;1.58;;
57225;SDS011;43082;43.568;22.256;2022-09-12T15:26:02;4.68;;;1.63;;
57225;SDS011;43082;43.568;22.256;2022-09-12T15:28:28;4.00;;;1.60;;
57225;SDS011;43082;43.568;22.256;2022-09-12T15:30:54;5.05;;;1.42;;
57225;SDS011;43082;43.568;22.256;2022-09-12T15:33:21;5.47;;;2.05;;
57225;SDS011;43082;43.568;22.256;2022-09-12T15:35:48;5.68;;;1.80;;
57225;SDS011;43082;43.568;22.256;2022-09-12T15:38:13;8.00;;;2.30;;
57225;SDS011;43082;43.568;22.256;2022-09-12T15:40:39;6.50;;;2.33;;
57225;SDS011;43082;43.568;22.256;2022-09-12T15:43:05;4.00;;;1.73;;
57225;SDS011;43082;43.568;22.256;2022-09-12T15:45:32;5.05;;;2.03;;
57225;SDS011;43082;43.568;22.256;2022-09-12T15:47:58;10.00;;;3.70;;
57225;SDS011;43082;43.568;22.256;2022-09-12T15:50:24;6.72;;;2.00;;
57225;SDS011;43082;43.568;22.256;2022-09-12T15:52:50;5.97;;;1.92;;
57225;SDS011;43082;43.568;22.256;2022-09-12T15:57:52;6.05;;;2.00;;
57225;SDS011;43082;43.568;22.256;2022-09-12T16:00:18;4.75;;;1.92;;
57225;SDS011;43082;43.568;22.256;2022-09-12T16:02:45;5.07;;;2.10;;
57225;SDS011;43082;43.568;22.256;2022-09-12T16:05:16;6.78;;;2.50;;
57225;SDS011;43082;43.568;22.256;2022-09-12T16:07:44;7.63;;;3.22;;
57225;SDS011;43082;43.568;22.256;2022-09-12T16:10:13;5.35;;;2.10;;
57225;SDS011;43082;43.568;22.256;2022-09-12T16:12:39;4.60;;;1.90;;
57225;SDS011;43082;43.568;22.256;2022-09-12T16:15:05;6.20;;;3.40;;
57225;SDS011;43082;43.568;22.256;2022-09-12T16:17:31;7.15;;;2.90;;
57225;SDS011;43082;43.568;22.256;2022-09-12T16:19:56;7.43;;;2.53;;
57225;SDS011;43082;43.568;22.256;2022-09-12T16:22:22;7.63;;;2.97;;
57225;SDS011;43082;43.568;22.256;2022-09-12T16:24:48;6.38;;;2.60;;
57225;SDS011;43082;43.568;22.256;2022-09-12T16:27:13;5.38;;;2.78;;
57225;SDS011;43082;43.568;22.256;2022-09-12T16:29:40;6.03;;;2.75;;
57225;SDS011;43082;43.568;22.256;2022-09-12T16:32:06;5.78;;;2.05;;
57225;SDS011;43082;43.568;22.256;2022-09-12T16:34:31;5.57;;;1.92;;
57225;SDS011;43082;43.568;22.256;2022-09-12T16:36:57;4.80;;;1.90;;
57225;SDS011;43082;43.568;22.256;2022-09-12T16:39:22;6.18;;;2.45;;
57225;SDS011;43082;43.568;22.256;2022-09-12T16:41:48;4.35;;;1.83;;
57225;SDS011;43082;43.568;22.256;2022-09-12T16:44:13;7.00;;;1.92;;
57225;SDS011;43082;43.568;22.256;2022-09-12T16:46:39;5.10;;;1.75;;
57225;SDS011;43082;43.568;22.256;2022-09-12T16:49:04;6.93;;;2.10;;
57225;SDS011;43082;43.568;22.256;2022-09-12T16:51:31;4.70;;;1.95;;
57225;SDS011;43082;43.568;22.256;2022-09-12T16:53:59;5.00;;;1.80;;
57225;SDS011;43082;43.568;22.256;2022-09-12T16:56:25;5.72;;;2.10;;
57225;SDS011;43082;43.568;22.256;2022-09-12T16:58:51;6.47;;;1.80;;
57225;SDS011;43082;43.568;22.256;2022-09-12T17:01:17;6.20;;;2.10;;
57225;SDS011;43082;43.568;22.256;2022-09-12T17:03:44;4.25;;;1.77;;
57225;SDS011;43082;43.568;22.256;2022-09-12T17:08:37;5.75;;;1.70;;
57225;SDS011;43082;43.568;22.256;2022-09-12T17:11:08;6.13;;;1.70;;
57225;SDS011;43082;43.568;22.256;2022-09-12T17:13:35;5.88;;;2.22;;
57225;SDS011;43082;43.568;22.256;2022-09-12T17:16:05;6.60;;;1.70;;
57225;SDS011;43082;43.568;22.256;2022-09-12T17:18:35;4.88;;;1.90;;
57225;SDS011;43082;43.568;22.256;2022-09-12T17:21:01;5.88;;;1.92;;
57225;SDS011;43082;43.568;22.256;2022-09-12T17:23:26;9.18;;;4.10;;
57225;SDS011;43082;43.568;22.256;2022-09-12T17:25:52;8.13;;;2.85;;
57225;SDS011;43082;43.568;22.256;2022-09-12T17:28:18;10.77;;;3.28;;
57225;SDS011;43082;43.568;22.256;2022-09-12T17:30:44;9.45;;;4.32;;
57225;SDS011;43082;43.568;22.256;2022-09-12T17:33:09;8.63;;;4.15;;
57225;SDS011;43082;43.568;22.256;2022-09-12T17:35:36;10.38;;;4.38;;
57225;SDS011;43082;43.568;22.256;2022-09-12T17:38:03;8.57;;;3.75;;